EZY35ZV EGKK-LGSA
Flight info
| Callsign | EZY35ZV |
|---|---|
| Flight time | N/A |
| Altitude | 35000 |
| Route | SFD4Z SFD Y47 BENBO L612 XAMAB UL612 VEULE DCT TEPRI DCT POGZI DCT GELTA DCT LUVAL DCT BEGAR DCT TRA DCT GAMSA DCT GEDSO DCT VEKEN DCT DARZA DCT GLOMY DCT PETAK DCT DIMIS UL604 PLH PLH1Q |
| Aircraft | A320/M-SDE2E3FGHIJ1RWXYZ/LB1 |
Departure
| Time | 2026-05-06 09:31 |
|---|---|
| Airport | London Gatwick Airport (EGKK) |
Arrival
| Time | N/A |
|---|---|
| Airport | Chania International Airport (LGSA) |
| Time | Latitude | Longitude | Altitude | Speed | Heading |
|---|---|---|---|---|---|
| 2026-05-06 09:08 | 51.15817 | -0.17952 | 213 ft | 0 kts | 78° |
| 2026-05-06 09:18 | 51.15813 | -0.17980 | 205 ft | 4 kts | 78° |
| 2026-05-06 09:19 | 51.15808 | -0.18015 | 205 ft | 3 kts | 78° |
| 2026-05-06 09:19 | 51.15809 | -0.18053 | 206 ft | 4 kts | 122° |
| 2026-05-06 09:19 | 51.15827 | -0.18078 | 208 ft | 3 kts | 167° |
| 2026-05-06 09:19 | 51.15850 | -0.18085 | 216 ft | 1 kts | 168° |
| 2026-05-06 09:20 | 51.15850 | -0.18086 | 205 ft | 0 kts | 168° |
| 2026-05-06 09:23 | 51.15819 | -0.18075 | 216 ft | 11 kts | 168° |
| 2026-05-06 09:24 | 51.15744 | -0.18049 | 213 ft | 10 kts | 167° |
| 2026-05-06 09:24 | 51.15678 | -0.18088 | 213 ft | 14 kts | 234° |
| 2026-05-06 09:24 | 51.15627 | -0.18237 | 211 ft | 17 kts | 205° |
| 2026-05-06 09:24 | 51.15524 | -0.18318 | 215 ft | 16 kts | 192° |
| 2026-05-06 09:25 | 51.15421 | -0.18292 | 205 ft | 14 kts | 167° |
| 2026-05-06 09:25 | 51.15333 | -0.18261 | 206 ft | 12 kts | 167° |
| 2026-05-06 09:25 | 51.15252 | -0.18233 | 211 ft | 14 kts | 167° |
| 2026-05-06 09:25 | 51.15141 | -0.18206 | 210 ft | 16 kts | 193° |
| 2026-05-06 09:26 | 51.15088 | -0.18375 | 214 ft | 21 kts | 257° |
| 2026-05-06 09:26 | 51.15052 | -0.18628 | 213 ft | 24 kts | 257° |
| 2026-05-06 09:26 | 51.15016 | -0.18893 | 206 ft | 25 kts | 258° |
| 2026-05-06 09:26 | 51.14981 | -0.19159 | 211 ft | 24 kts | 258° |
| 2026-05-06 09:27 | 51.14953 | -0.19367 | 210 ft | 19 kts | 258° |
| 2026-05-06 09:27 | 51.14925 | -0.19585 | 212 ft | 21 kts | 258° |
| 2026-05-06 09:27 | 51.14895 | -0.19810 | 215 ft | 21 kts | 254° |
| 2026-05-06 09:27 | 51.14857 | -0.20045 | 205 ft | 23 kts | 256° |
| 2026-05-06 09:28 | 51.14822 | -0.20283 | 208 ft | 22 kts | 257° |
| 2026-05-06 09:28 | 51.14790 | -0.20509 | 204 ft | 17 kts | 257° |
| 2026-05-06 09:28 | 51.14765 | -0.20689 | 214 ft | 17 kts | 257° |
| 2026-05-06 09:28 | 51.14739 | -0.20879 | 209 ft | 18 kts | 258° |
| 2026-05-06 09:29 | 51.14712 | -0.21081 | 210 ft | 19 kts | 258° |
| 2026-05-06 09:29 | 51.14687 | -0.21270 | 205 ft | 15 kts | 257° |
| 2026-05-06 09:29 | 51.14608 | -0.21326 | 212 ft | 13 kts | 162° |
| 2026-05-06 09:29 | 51.14537 | -0.21253 | 211 ft | 15 kts | 127° |
| 2026-05-06 09:30 | 51.14531 | -0.21096 | 210 ft | 14 kts | 76° |
| 2026-05-06 09:30 | 51.14559 | -0.20908 | 209 ft | 34 kts | 78° |
| 2026-05-06 09:30 | 51.14665 | -0.20156 | 210 ft | 102 kts | 77° |
| 2026-05-06 09:30 | 51.14854 | -0.18772 | 209 ft | 152 kts | 78° |
| 2026-05-06 09:31 | 51.15101 | -0.17048 | 728 ft | 152 kts | 75° |
| 2026-05-06 09:31 | 51.15315 | -0.15426 | 1472 ft | 150 kts | 76° |
| 2026-05-06 09:31 | 51.15525 | -0.13781 | 2010 ft | 155 kts | 75° |
| 2026-05-06 09:31 | 51.15772 | -0.11998 | 2267 ft | 174 kts | 74° |
| 2026-05-06 09:32 | 51.16052 | -0.10020 | 2456 ft | 197 kts | 75° |
| 2026-05-06 09:32 | 51.16029 | -0.07725 | 2727 ft | 223 kts | 108° |
| 2026-05-06 09:32 | 51.15086 | -0.05698 | 3198 ft | 243 kts | 144° |
| 2026-05-06 09:32 | 51.13447 | -0.04642 | 3593 ft | 265 kts | 163° |
| 2026-05-06 09:33 | 51.11617 | -0.03971 | 4261 ft | 273 kts | 167° |
| 2026-05-06 09:33 | 51.09740 | -0.03403 | 4998 ft | 276 kts | 168° |
| 2026-05-06 09:33 | 51.07852 | -0.02733 | 5738 ft | 280 kts | 165° |
| 2026-05-06 09:33 | 51.06009 | -0.01946 | 6451 ft | 284 kts | 163° |
| 2026-05-06 09:34 | 51.04105 | -0.01058 | 7196 ft | 287 kts | 163° |
| 2026-05-06 09:34 | 51.02180 | -0.00136 | 7916 ft | 290 kts | 163° |
| 2026-05-06 09:34 | 51.00237 | 0.00802 | 8594 ft | 294 kts | 162° |
| 2026-05-06 09:34 | 50.98266 | 0.01751 | 9270 ft | 298 kts | 162° |
| 2026-05-06 09:35 | 50.96266 | 0.02705 | 9936 ft | 302 kts | 163° |
| 2026-05-06 09:35 | 50.94249 | 0.03663 | 10635 ft | 304 kts | 163° |
| 2026-05-06 09:35 | 50.92221 | 0.04620 | 11336 ft | 305 kts | 163° |
| 2026-05-06 09:35 | 50.90183 | 0.05579 | 12020 ft | 306 kts | 163° |
| 2026-05-06 09:36 | 50.88139 | 0.06534 | 12689 ft | 308 kts | 163° |
| 2026-05-06 09:36 | 50.86083 | 0.07498 | 12931 ft | 308 kts | 163° |
| 2026-05-06 09:36 | 50.84031 | 0.08463 | 12992 ft | 307 kts | 163° |
| 2026-05-06 09:36 | 50.81984 | 0.09422 | 12997 ft | 306 kts | 163° |
| 2026-05-06 09:37 | 50.79942 | 0.10381 | 12998 ft | 306 kts | 163° |
| 2026-05-06 09:37 | 50.77895 | 0.11317 | 12998 ft | 306 kts | 167° |
| 2026-05-06 09:37 | 50.75784 | 0.11715 | 12999 ft | 306 kts | 181° |
| 2026-05-06 09:37 | 50.73597 | 0.11310 | 13004 ft | 328 kts | 193° |
| 2026-05-06 09:38 | 50.71338 | 0.10483 | 13000 ft | 336 kts | 193° |
| 2026-05-06 09:38 | 50.69052 | 0.09652 | 12998 ft | 338 kts | 193° |
| 2026-05-06 09:38 | 50.66760 | 0.08818 | 12997 ft | 338 kts | 193° |
| 2026-05-06 09:38 | 50.64465 | 0.07980 | 13015 ft | 340 kts | 193° |
| 2026-05-06 09:39 | 50.62146 | 0.07139 | 13582 ft | 342 kts | 193° |
| 2026-05-06 09:39 | 50.59818 | 0.06298 | 14185 ft | 344 kts | 193° |
| 2026-05-06 09:39 | 50.57478 | 0.05453 | 14758 ft | 347 kts | 193° |
| 2026-05-06 09:39 | 50.55117 | 0.04604 | 15337 ft | 349 kts | 193° |
| 2026-05-06 09:40 | 50.52743 | 0.03752 | 15871 ft | 351 kts | 193° |
| 2026-05-06 09:40 | 50.50352 | 0.02894 | 16394 ft | 353 kts | 193° |
| 2026-05-06 09:40 | 50.45435 | 0.02478 | 17389 ft | 360 kts | 171° |
| 2026-05-06 09:41 | 50.43024 | 0.03566 | 17873 ft | 363 kts | 157° |
| 2026-05-06 09:41 | 50.40803 | 0.05491 | 18338 ft | 367 kts | 147° |
| 2026-05-06 09:41 | 50.38673 | 0.07713 | 18834 ft | 369 kts | 147° |
| 2026-05-06 09:41 | 50.36527 | 0.09936 | 19304 ft | 371 kts | 147° |
| 2026-05-06 09:42 | 50.34363 | 0.12168 | 19772 ft | 373 kts | 147° |
| 2026-05-06 09:42 | 50.32188 | 0.14405 | 20231 ft | 375 kts | 147° |
| 2026-05-06 09:42 | 50.30003 | 0.16645 | 20674 ft | 377 kts | 147° |
| 2026-05-06 09:42 | 50.27804 | 0.18903 | 21105 ft | 380 kts | 147° |
| 2026-05-06 09:43 | 50.25587 | 0.21179 | 21536 ft | 382 kts | 147° |
| 2026-05-06 09:43 | 50.23363 | 0.23466 | 21947 ft | 384 kts | 147° |
| 2026-05-06 09:43 | 50.21131 | 0.25761 | 22345 ft | 386 kts | 147° |
| 2026-05-06 09:43 | 50.18883 | 0.28074 | 22730 ft | 388 kts | 147° |
| 2026-05-06 09:44 | 50.16630 | 0.30397 | 23117 ft | 389 kts | 147° |
| 2026-05-06 09:44 | 50.14393 | 0.32700 | 23487 ft | 391 kts | 147° |
| 2026-05-06 09:44 | 50.12084 | 0.35074 | 23856 ft | 394 kts | 147° |
| 2026-05-06 09:44 | 50.09792 | 0.37422 | 24218 ft | 395 kts | 147° |
| 2026-05-06 09:45 | 50.07489 | 0.39774 | 24568 ft | 397 kts | 147° |
| 2026-05-06 09:45 | 50.05175 | 0.42139 | 24908 ft | 399 kts | 147° |
| 2026-05-06 09:45 | 50.02852 | 0.44515 | 25239 ft | 401 kts | 147° |
| 2026-05-06 09:45 | 50.00550 | 0.46870 | 25559 ft | 402 kts | 147° |
| 2026-05-06 09:46 | 49.98205 | 0.49260 | 25891 ft | 404 kts | 147° |
| 2026-05-06 09:46 | 49.95816 | 0.51686 | 26224 ft | 405 kts | 147° |
| 2026-05-06 09:46 | 49.93454 | 0.54085 | 26546 ft | 407 kts | 147° |
| 2026-05-06 09:46 | 49.91115 | 0.56460 | 26865 ft | 408 kts | 147° |
| 2026-05-06 09:47 | 49.88739 | 0.58872 | 27147 ft | 409 kts | 146° |
| 2026-05-06 09:47 | 49.86386 | 0.61359 | 27437 ft | 410 kts | 141° |
| 2026-05-06 09:47 | 49.84277 | 0.64343 | 27719 ft | 411 kts | 132° |
| 2026-05-06 09:47 | 49.82354 | 0.67633 | 27991 ft | 413 kts | 132° |
| 2026-05-06 09:48 | 49.80422 | 0.70929 | 28296 ft | 414 kts | 132° |
| 2026-05-06 09:48 | 49.78477 | 0.74227 | 28578 ft | 415 kts | 132° |
| 2026-05-06 09:48 | 49.76529 | 0.77522 | 28855 ft | 416 kts | 132° |
| 2026-05-06 09:48 | 49.74572 | 0.80826 | 29132 ft | 417 kts | 132° |
| 2026-05-06 09:49 | 49.72613 | 0.84129 | 29406 ft | 417 kts | 132° |
| 2026-05-06 09:49 | 49.71310 | 0.86322 | 29565 ft | 418 kts | 132° |
| 2026-05-06 09:49 | 49.69341 | 0.89639 | 29813 ft | 419 kts | 132° |
| 2026-05-06 09:49 | 49.67370 | 0.92959 | 30089 ft | 420 kts | 132° |
| 2026-05-06 09:50 | 49.65400 | 0.96277 | 30325 ft | 421 kts | 132° |
| 2026-05-06 09:50 | 49.63412 | 0.99614 | 30547 ft | 422 kts | 132° |
| 2026-05-06 09:50 | 49.61416 | 1.02957 | 30763 ft | 424 kts | 132° |
| 2026-05-06 09:50 | 49.59416 | 1.06300 | 30966 ft | 425 kts | 132° |
| 2026-05-06 09:51 | 49.57403 | 1.09661 | 31144 ft | 428 kts | 132° |
| 2026-05-06 09:51 | 49.55383 | 1.13033 | 31345 ft | 429 kts | 132° |
| 2026-05-06 09:51 | 49.53353 | 1.16419 | 31531 ft | 431 kts | 132° |
| 2026-05-06 09:51 | 49.51322 | 1.19802 | 31786 ft | 430 kts | 132° |
| 2026-05-06 09:52 | 49.49294 | 1.23180 | 32023 ft | 430 kts | 132° |
| 2026-05-06 09:52 | 49.47265 | 1.26556 | 32258 ft | 430 kts | 133° |
| 2026-05-06 09:52 | 49.45235 | 1.29929 | 32487 ft | 430 kts | 133° |
| 2026-05-06 09:52 | 49.43197 | 1.33301 | 32699 ft | 430 kts | 133° |
| 2026-05-06 09:53 | 49.41159 | 1.36670 | 32919 ft | 431 kts | 133° |
| 2026-05-06 09:53 | 49.39121 | 1.40037 | 33132 ft | 431 kts | 133° |
| 2026-05-06 09:53 | 49.37079 | 1.43405 | 33338 ft | 431 kts | 133° |
| 2026-05-06 09:53 | 49.35030 | 1.46777 | 33549 ft | 432 kts | 133° |
| 2026-05-06 09:54 | 49.32984 | 1.50147 | 33765 ft | 432 kts | 133° |
| 2026-05-06 09:54 | 49.30938 | 1.53514 | 33997 ft | 432 kts | 133° |
| 2026-05-06 09:54 | 49.28887 | 1.56877 | 34187 ft | 432 kts | 133° |
| 2026-05-06 09:54 | 49.26833 | 1.60244 | 34370 ft | 432 kts | 133° |
| 2026-05-06 09:55 | 49.24779 | 1.63609 | 34542 ft | 433 kts | 133° |
| 2026-05-06 09:55 | 49.22723 | 1.66975 | 34728 ft | 433 kts | 133° |
| 2026-05-06 09:55 | 49.20671 | 1.70332 | 34890 ft | 433 kts | 133° |
| 2026-05-06 09:55 | 49.18626 | 1.73673 | 34937 ft | 425 kts | 133° |
| 2026-05-06 09:56 | 49.14622 | 1.80188 | 34924 ft | 418 kts | 134° |
| 2026-05-06 09:56 | 49.10640 | 1.86653 | 34924 ft | 418 kts | 134° |
| 2026-05-06 09:57 | 49.06659 | 1.93102 | 34923 ft | 417 kts | 133° |
| 2026-05-06 09:57 | 49.02714 | 1.99485 | 34925 ft | 417 kts | 134° |
| 2026-05-06 09:58 | 48.98732 | 2.05896 | 34924 ft | 416 kts | 134° |
| 2026-05-06 09:58 | 48.94751 | 2.12289 | 34920 ft | 416 kts | 134° |
| 2026-05-06 09:59 | 48.90776 | 2.18673 | 34919 ft | 416 kts | 134° |
| 2026-05-06 09:59 | 48.86799 | 2.25043 | 34920 ft | 415 kts | 134° |
| 2026-05-06 10:00 | 48.82816 | 2.31394 | 34921 ft | 415 kts | 134° |
| 2026-05-06 10:00 | 48.78831 | 2.37732 | 34918 ft | 415 kts | 134° |
| 2026-05-06 10:01 | 48.74847 | 2.44055 | 34914 ft | 415 kts | 134° |
| 2026-05-06 10:01 | 48.70858 | 2.50373 | 34912 ft | 415 kts | 135° |
| 2026-05-06 10:02 | 48.66871 | 2.56676 | 34910 ft | 414 kts | 135° |
| 2026-05-06 10:02 | 48.62881 | 2.62967 | 34904 ft | 414 kts | 135° |
| 2026-05-06 10:03 | 48.58927 | 2.69203 | 34898 ft | 414 kts | 132° |
| 2026-05-06 10:03 | 48.55930 | 2.76601 | 34896 ft | 417 kts | 111° |
| 2026-05-06 10:04 | 48.55163 | 2.80818 | 34891 ft | 418 kts | 100° |
| 2026-05-06 10:04 | 48.54894 | 2.85189 | 34887 ft | 419 kts | 94° |
| 2026-05-06 10:04 | 48.54614 | 2.93978 | 34877 ft | 420 kts | 94° |
| 2026-05-06 10:05 | 48.54320 | 3.02719 | 34873 ft | 420 kts | 95° |
| 2026-05-06 10:05 | 48.54014 | 3.11519 | 34874 ft | 420 kts | 95° |
| 2026-05-06 10:06 | 48.53698 | 3.20330 | 34872 ft | 421 kts | 95° |
| 2026-05-06 10:06 | 48.53381 | 3.29141 | 34871 ft | 421 kts | 95° |
| 2026-05-06 10:07 | 48.53058 | 3.37957 | 34869 ft | 421 kts | 95° |
| 2026-05-06 10:07 | 48.52727 | 3.46767 | 34868 ft | 421 kts | 95° |
| 2026-05-06 10:08 | 48.52386 | 3.55579 | 34865 ft | 421 kts | 96° |
| 2026-05-06 10:08 | 48.52037 | 3.64391 | 34864 ft | 421 kts | 96° |
| 2026-05-06 10:09 | 48.51684 | 3.73215 | 34862 ft | 421 kts | 96° |
| 2026-05-06 10:09 | 48.51327 | 3.82026 | 34861 ft | 421 kts | 96° |
| 2026-05-06 10:10 | 48.50961 | 3.90842 | 34861 ft | 421 kts | 96° |
| 2026-05-06 10:10 | 48.50587 | 3.99655 | 34861 ft | 420 kts | 97° |
| 2026-05-06 10:11 | 48.49405 | 4.08208 | 34855 ft | 417 kts | 108° |
| 2026-05-06 10:11 | 48.47875 | 4.16577 | 34854 ft | 417 kts | 108° |
| 2026-05-06 10:12 | 48.46338 | 4.25000 | 34851 ft | 417 kts | 108° |
| 2026-05-06 10:12 | 48.44792 | 4.33433 | 34846 ft | 418 kts | 108° |
| 2026-05-06 10:13 | 48.43239 | 4.41869 | 34846 ft | 418 kts | 108° |
| 2026-05-06 10:13 | 48.41679 | 4.50306 | 34846 ft | 418 kts | 109° |
| 2026-05-06 10:14 | 48.40108 | 4.58736 | 34843 ft | 419 kts | 109° |
| 2026-05-06 10:14 | 48.38536 | 4.67177 | 34838 ft | 419 kts | 109° |
| 2026-05-06 10:15 | 48.36955 | 4.75621 | 34834 ft | 420 kts | 109° |
| 2026-05-06 10:15 | 48.35359 | 4.84065 | 34834 ft | 420 kts | 109° |
| 2026-05-06 10:16 | 48.33755 | 4.92517 | 34832 ft | 421 kts | 109° |
| 2026-05-06 10:16 | 48.32145 | 5.00975 | 34835 ft | 421 kts | 109° |
| 2026-05-06 10:17 | 48.30526 | 5.09443 | 34841 ft | 422 kts | 110° |
| 2026-05-06 10:17 | 48.28927 | 5.17916 | 34845 ft | 423 kts | 108° |
| 2026-05-06 10:18 | 48.27619 | 5.26483 | 34851 ft | 425 kts | 105° |
| 2026-05-06 10:18 | 48.26424 | 5.35179 | 34853 ft | 426 kts | 106° |
| 2026-05-06 10:19 | 48.25183 | 5.43869 | 34856 ft | 426 kts | 107° |
| 2026-05-06 10:19 | 48.23876 | 5.52545 | 34862 ft | 427 kts | 107° |
| 2026-05-06 10:20 | 48.22548 | 5.61219 | 34857 ft | 427 kts | 107° |
| 2026-05-06 10:20 | 48.21226 | 5.69917 | 34850 ft | 428 kts | 107° |
| 2026-05-06 10:21 | 48.19900 | 5.78614 | 34845 ft | 428 kts | 108° |
| 2026-05-06 10:21 | 48.18565 | 5.87315 | 34837 ft | 429 kts | 108° |
| 2026-05-06 10:22 | 48.17226 | 5.96024 | 34836 ft | 429 kts | 108° |
| 2026-05-06 10:22 | 48.15877 | 6.04739 | 34833 ft | 430 kts | 108° |
| 2026-05-06 10:23 | 48.14511 | 6.13452 | 34832 ft | 430 kts | 108° |
| 2026-05-06 10:23 | 48.13143 | 6.22151 | 34833 ft | 430 kts | 108° |
| 2026-05-06 10:24 | 48.11774 | 6.30858 | 34831 ft | 430 kts | 108° |
| 2026-05-06 10:24 | 48.10400 | 6.39569 | 34834 ft | 430 kts | 108° |
| 2026-05-06 10:25 | 48.09010 | 6.48260 | 34834 ft | 430 kts | 108° |
| 2026-05-06 10:25 | 48.07623 | 6.56890 | 34834 ft | 430 kts | 108° |
| 2026-05-06 10:26 | 48.06226 | 6.65574 | 34832 ft | 430 kts | 108° |
| 2026-05-06 10:26 | 48.04823 | 6.74266 | 34832 ft | 430 kts | 108° |
| 2026-05-06 10:27 | 48.03414 | 6.82964 | 34829 ft | 431 kts | 109° |
| 2026-05-06 10:27 | 48.01986 | 6.91664 | 34821 ft | 431 kts | 109° |
| 2026-05-06 10:28 | 48.00557 | 7.00369 | 34819 ft | 432 kts | 109° |
| 2026-05-06 10:28 | 47.99117 | 7.09087 | 34804 ft | 433 kts | 110° |
| 2026-05-06 10:29 | 47.97665 | 7.17806 | 34795 ft | 433 kts | 110° |
| 2026-05-06 10:29 | 47.96211 | 7.26533 | 34800 ft | 434 kts | 110° |
| 2026-05-06 10:30 | 47.94743 | 7.35273 | 34798 ft | 434 kts | 111° |
| 2026-05-06 10:30 | 47.93268 | 7.44018 | 34795 ft | 435 kts | 111° |
| 2026-05-06 10:31 | 47.91789 | 7.52760 | 34797 ft | 436 kts | 111° |
| 2026-05-06 10:31 | 47.90082 | 7.61383 | 34805 ft | 430 kts | 117° |
| 2026-05-06 10:32 | 47.87968 | 7.69738 | 34793 ft | 431 kts | 118° |
| 2026-05-06 10:32 | 47.85846 | 7.78087 | 34800 ft | 431 kts | 117° |
| 2026-05-06 10:33 | 47.83721 | 7.86442 | 34804 ft | 431 kts | 118° |
| 2026-05-06 10:33 | 47.81592 | 7.94790 | 34805 ft | 431 kts | 117° |
| 2026-05-06 10:34 | 47.79452 | 8.03129 | 34801 ft | 431 kts | 118° |
| 2026-05-06 10:34 | 47.77321 | 8.11414 | 34804 ft | 432 kts | 118° |
| 2026-05-06 10:35 | 47.75173 | 8.19751 | 34821 ft | 432 kts | 118° |
| 2026-05-06 10:35 | 47.73021 | 8.28093 | 34810 ft | 432 kts | 118° |
| 2026-05-06 10:36 | 47.70852 | 8.36412 | 34806 ft | 432 kts | 118° |
| 2026-05-06 10:36 | 47.68678 | 8.44721 | 34813 ft | 433 kts | 118° |
| 2026-05-06 10:37 | 47.66696 | 8.53177 | 34812 ft | 435 kts | 115° |
| 2026-05-06 10:37 | 47.64846 | 8.61724 | 34825 ft | 435 kts | 115° |
| 2026-05-06 10:38 | 47.62968 | 8.70250 | 34818 ft | 435 kts | 116° |
| 2026-05-06 10:38 | 47.61030 | 8.78732 | 34818 ft | 434 kts | 116° |
| 2026-05-06 10:39 | 47.59077 | 8.87194 | 34820 ft | 434 kts | 116° |
| 2026-05-06 10:39 | 47.57446 | 8.94283 | 34815 ft | 434 kts | 116° |
| 2026-05-06 10:40 | 47.55512 | 9.02658 | 34814 ft | 434 kts | 117° |
| 2026-05-06 10:40 | 47.53556 | 9.11074 | 34815 ft | 434 kts | 117° |
| 2026-05-06 10:41 | 47.51597 | 9.19521 | 34820 ft | 433 kts | 117° |
| 2026-05-06 10:41 | 47.49634 | 9.27950 | 34807 ft | 434 kts | 117° |
| 2026-05-06 10:42 | 47.47665 | 9.36374 | 34821 ft | 434 kts | 117° |
| 2026-05-06 10:42 | 47.45680 | 9.44787 | 34817 ft | 433 kts | 117° |
| 2026-05-06 10:43 | 47.43691 | 9.53186 | 34825 ft | 433 kts | 117° |
| 2026-05-06 10:44 | 47.40774 | 9.65835 | 34830 ft | 438 kts | 111° |
| 2026-05-06 10:44 | 47.39533 | 9.74697 | 34831 ft | 441 kts | 109° |
| 2026-05-06 10:45 | 47.38309 | 9.83570 | 34833 ft | 441 kts | 109° |
| 2026-05-06 10:45 | 47.37080 | 9.92433 | 34823 ft | 441 kts | 109° |
| 2026-05-06 10:46 | 47.35834 | 10.01291 | 34828 ft | 440 kts | 109° |
| 2026-05-06 10:46 | 47.34589 | 10.10139 | 34831 ft | 441 kts | 109° |
| 2026-05-06 10:47 | 47.33328 | 10.19002 | 34832 ft | 442 kts | 109° |
| 2026-05-06 10:47 | 47.32063 | 10.27850 | 34831 ft | 441 kts | 109° |
| 2026-05-06 10:48 | 47.30788 | 10.36715 | 34841 ft | 443 kts | 109° |
| 2026-05-06 10:48 | 47.29507 | 10.45609 | 34845 ft | 444 kts | 109° |
| 2026-05-06 10:49 | 47.28215 | 10.54492 | 34845 ft | 444 kts | 109° |
| 2026-05-06 10:49 | 47.26912 | 10.63372 | 34837 ft | 443 kts | 109° |
| 2026-05-06 10:50 | 47.25610 | 10.72255 | 34835 ft | 444 kts | 109° |
| 2026-05-06 10:50 | 47.24301 | 10.81133 | 34839 ft | 444 kts | 109° |
| 2026-05-06 10:51 | 47.22981 | 10.90020 | 34820 ft | 445 kts | 109° |
| 2026-05-06 10:51 | 47.21652 | 10.98914 | 34811 ft | 445 kts | 110° |
| 2026-05-06 10:52 | 47.20311 | 11.07800 | 34822 ft | 445 kts | 109° |
| 2026-05-06 10:52 | 47.18969 | 11.16683 | 34808 ft | 445 kts | 109° |
| 2026-05-06 10:53 | 47.17611 | 11.25568 | 34806 ft | 446 kts | 110° |
| 2026-05-06 10:53 | 47.16247 | 11.34469 | 34795 ft | 447 kts | 109° |
| 2026-05-06 10:54 | 47.14886 | 11.43368 | 34799 ft | 446 kts | 109° |
| 2026-05-06 10:54 | 47.13511 | 11.52256 | 34796 ft | 447 kts | 109° |
| 2026-05-06 10:55 | 47.12126 | 11.61151 | 34813 ft | 446 kts | 109° |
| 2026-05-06 10:55 | 47.10737 | 11.70030 | 34816 ft | 446 kts | 110° |
| 2026-05-06 10:56 | 47.09334 | 11.78899 | 34835 ft | 446 kts | 110° |
| 2026-05-06 10:56 | 47.07759 | 11.87663 | 34846 ft | 439 kts | 119° |
| 2026-05-06 10:57 | 47.05188 | 11.95681 | 34876 ft | 435 kts | 124° |
| 2026-05-06 10:57 | 47.02521 | 12.03631 | 34883 ft | 435 kts | 123° |
| 2026-05-06 10:58 | 46.99850 | 12.11567 | 34894 ft | 434 kts | 123° |
| 2026-05-06 10:58 | 46.97178 | 12.19518 | 34907 ft | 435 kts | 123° |
| 2026-05-06 10:59 | 46.94498 | 12.27469 | 34914 ft | 436 kts | 123° |
| 2026-05-06 10:59 | 46.91811 | 12.35418 | 34924 ft | 436 kts | 123° |
| 2026-05-06 11:00 | 46.89113 | 12.43361 | 34926 ft | 436 kts | 124° |
| 2026-05-06 11:00 | 46.86425 | 12.51254 | 34934 ft | 437 kts | 124° |
| 2026-05-06 11:01 | 46.83712 | 12.59198 | 34935 ft | 437 kts | 124° |
| 2026-05-06 11:01 | 46.80994 | 12.67142 | 34935 ft | 437 kts | 123° |
| 2026-05-06 11:02 | 46.78271 | 12.75077 | 34924 ft | 437 kts | 123° |
| 2026-05-06 11:02 | 46.75534 | 12.82991 | 34923 ft | 438 kts | 124° |
| 2026-05-06 11:03 | 46.72792 | 12.90914 | 34923 ft | 438 kts | 124° |
| 2026-05-06 11:03 | 46.70051 | 12.98834 | 34922 ft | 438 kts | 124° |
| 2026-05-06 11:04 | 46.67299 | 13.06760 | 34928 ft | 439 kts | 124° |
| 2026-05-06 11:04 | 46.64534 | 13.14673 | 34931 ft | 439 kts | 124° |
| 2026-05-06 11:05 | 46.61764 | 13.22586 | 34933 ft | 438 kts | 124° |
| 2026-05-06 11:05 | 46.58991 | 13.30479 | 34933 ft | 438 kts | 124° |
| 2026-05-06 11:06 | 46.56030 | 13.38173 | 34923 ft | 430 kts | 134° |
| 2026-05-06 11:06 | 46.52119 | 13.44597 | 34919 ft | 424 kts | 141° |
| 2026-05-06 11:07 | 46.48102 | 13.50860 | 34921 ft | 425 kts | 140° |
| 2026-05-06 11:07 | 46.44077 | 13.57159 | 34918 ft | 426 kts | 141° |
| 2026-05-06 11:08 | 46.40038 | 13.63442 | 34919 ft | 427 kts | 141° |
| 2026-05-06 11:08 | 46.35990 | 13.69719 | 34913 ft | 426 kts | 141° |
| 2026-05-06 11:09 | 46.31934 | 13.76010 | 34915 ft | 428 kts | 141° |
| 2026-05-06 11:09 | 46.27869 | 13.82306 | 34921 ft | 429 kts | 141° |
| 2026-05-06 11:10 | 46.23820 | 13.88558 | 34927 ft | 429 kts | 141° |
| 2026-05-06 11:10 | 46.19730 | 13.94861 | 34934 ft | 431 kts | 141° |
| 2026-05-06 11:11 | 46.15629 | 14.01157 | 34945 ft | 431 kts | 141° |
| 2026-05-06 11:11 | 46.11518 | 14.07444 | 34953 ft | 431 kts | 141° |
| 2026-05-06 11:12 | 46.07404 | 14.13734 | 34956 ft | 431 kts | 141° |
| 2026-05-06 11:12 | 46.03283 | 14.20014 | 34964 ft | 431 kts | 141° |
| 2026-05-06 11:13 | 45.99159 | 14.26290 | 34968 ft | 431 kts | 141° |
| 2026-05-06 11:13 | 45.95039 | 14.32551 | 34967 ft | 431 kts | 141° |
| 2026-05-06 11:14 | 45.90911 | 14.38804 | 34971 ft | 431 kts | 141° |
| 2026-05-06 11:14 | 45.86778 | 14.45039 | 34971 ft | 430 kts | 141° |
| 2026-05-06 11:15 | 45.82653 | 14.51258 | 34969 ft | 430 kts | 141° |
| 2026-05-06 11:15 | 45.78529 | 14.57466 | 34977 ft | 430 kts | 141° |
| 2026-05-06 11:16 | 45.74405 | 14.63659 | 34977 ft | 429 kts | 141° |
| 2026-05-06 11:16 | 45.70281 | 14.69824 | 34981 ft | 429 kts | 140° |
| 2026-05-06 11:17 | 45.66160 | 14.75975 | 34983 ft | 428 kts | 140° |
| 2026-05-06 11:17 | 45.62036 | 14.82122 | 35004 ft | 428 kts | 140° |
| 2026-05-06 11:18 | 45.57909 | 14.88256 | 35002 ft | 428 kts | 140° |
| 2026-05-06 11:18 | 45.53815 | 14.94339 | 34988 ft | 428 kts | 140° |
| 2026-05-06 11:19 | 45.49689 | 15.00445 | 35000 ft | 427 kts | 140° |
| 2026-05-06 11:19 | 45.45544 | 15.06476 | 34984 ft | 426 kts | 140° |
| 2026-05-06 11:20 | 45.41367 | 15.12444 | 34983 ft | 425 kts | 141° |
| 2026-05-06 11:20 | 45.37197 | 15.18407 | 34986 ft | 425 kts | 140° |
| 2026-05-06 11:21 | 45.33029 | 15.24370 | 34988 ft | 425 kts | 140° |
| 2026-05-06 11:21 | 45.28863 | 15.30318 | 34987 ft | 425 kts | 140° |
| 2026-05-06 11:22 | 45.24695 | 15.36263 | 34983 ft | 425 kts | 140° |
| 2026-05-06 11:22 | 45.20528 | 15.42197 | 34986 ft | 424 kts | 140° |
| 2026-05-06 11:23 | 45.16362 | 15.48120 | 34986 ft | 424 kts | 140° |
| 2026-05-06 11:23 | 45.12190 | 15.54027 | 34994 ft | 424 kts | 140° |
| 2026-05-06 11:24 | 45.08009 | 15.59916 | 34984 ft | 424 kts | 140° |
| 2026-05-06 11:24 | 45.03836 | 15.65792 | 34984 ft | 423 kts | 140° |
| 2026-05-06 11:25 | 45.00369 | 15.70669 | 34982 ft | 423 kts | 140° |
| 2026-05-06 11:25 | 44.95519 | 15.77479 | 34979 ft | 423 kts | 140° |
| 2026-05-06 11:26 | 44.91343 | 15.83327 | 34980 ft | 423 kts | 140° |
| 2026-05-06 11:26 | 44.87171 | 15.89172 | 34985 ft | 423 kts | 140° |
| 2026-05-06 11:27 | 44.83672 | 15.94047 | 34986 ft | 422 kts | 140° |
| 2026-05-06 11:27 | 44.79498 | 15.99855 | 34983 ft | 422 kts | 140° |
| 2026-05-06 11:28 | 44.75320 | 16.05662 | 34980 ft | 422 kts | 139° |
| 2026-05-06 11:28 | 44.71149 | 16.11447 | 34980 ft | 422 kts | 140° |
| 2026-05-06 11:29 | 44.66997 | 16.17193 | 34976 ft | 421 kts | 140° |
| 2026-05-06 11:29 | 44.62817 | 16.22956 | 34973 ft | 421 kts | 140° |
| 2026-05-06 11:30 | 44.58637 | 16.28711 | 34973 ft | 422 kts | 140° |
| 2026-05-06 11:30 | 44.54441 | 16.34473 | 34972 ft | 422 kts | 140° |
| 2026-05-06 11:31 | 44.50253 | 16.40218 | 34977 ft | 421 kts | 140° |
| 2026-05-06 11:31 | 44.46065 | 16.45950 | 34983 ft | 421 kts | 140° |
| 2026-05-06 11:32 | 44.41864 | 16.51686 | 35003 ft | 422 kts | 140° |
| 2026-05-06 11:32 | 44.37666 | 16.57408 | 34986 ft | 422 kts | 140° |
| 2026-05-06 11:33 | 44.33467 | 16.63131 | 34988 ft | 421 kts | 140° |
| 2026-05-06 11:33 | 44.29266 | 16.68839 | 34994 ft | 421 kts | 140° |
| 2026-05-06 11:34 | 44.25056 | 16.74535 | 34987 ft | 422 kts | 140° |
| 2026-05-06 11:34 | 44.20842 | 16.80214 | 34985 ft | 421 kts | 140° |
| 2026-05-06 11:35 | 44.16623 | 16.85896 | 34982 ft | 422 kts | 140° |
| 2026-05-06 11:35 | 44.12403 | 16.91571 | 34982 ft | 422 kts | 140° |
| 2026-05-06 11:36 | 44.08179 | 16.97246 | 34986 ft | 423 kts | 140° |
| 2026-05-06 11:36 | 44.03944 | 17.02926 | 35000 ft | 423 kts | 140° |
| 2026-05-06 11:37 | 43.99703 | 17.08604 | 35009 ft | 424 kts | 140° |
| 2026-05-06 11:37 | 43.95454 | 17.14269 | 35014 ft | 424 kts | 140° |
| 2026-05-06 11:38 | 43.91200 | 17.19928 | 35016 ft | 423 kts | 140° |
| 2026-05-06 11:38 | 43.86943 | 17.25583 | 35020 ft | 424 kts | 140° |
| 2026-05-06 11:39 | 43.82686 | 17.31228 | 35022 ft | 424 kts | 139° |
| 2026-05-06 11:39 | 43.78426 | 17.36875 | 35019 ft | 424 kts | 140° |
| 2026-05-06 11:40 | 43.74193 | 17.42462 | 35022 ft | 424 kts | 140° |
| 2026-05-06 11:40 | 43.69918 | 17.48091 | 35047 ft | 423 kts | 140° |
| 2026-05-06 11:41 | 43.65653 | 17.53711 | 35060 ft | 424 kts | 140° |
| 2026-05-06 11:41 | 43.61372 | 17.59326 | 35044 ft | 425 kts | 140° |
| 2026-05-06 11:42 | 43.57087 | 17.64928 | 35040 ft | 424 kts | 140° |
| 2026-05-06 11:42 | 43.52416 | 17.69799 | 35029 ft | 420 kts | 149° |
| 2026-05-06 11:43 | 43.47614 | 17.74386 | 35025 ft | 420 kts | 149° |
| 2026-05-06 11:43 | 43.42813 | 17.78965 | 35021 ft | 420 kts | 149° |
| 2026-05-06 11:44 | 43.35607 | 17.85827 | 35023 ft | 420 kts | 149° |
| 2026-05-06 11:44 | 43.30805 | 17.90392 | 35021 ft | 420 kts | 149° |
| 2026-05-06 11:45 | 43.25999 | 17.94935 | 35017 ft | 419 kts | 149° |
| 2026-05-06 11:45 | 43.21195 | 17.99471 | 35021 ft | 419 kts | 149° |
| 2026-05-06 11:46 | 43.16392 | 18.04007 | 35015 ft | 420 kts | 149° |
| 2026-05-06 11:46 | 43.11607 | 18.08514 | 35009 ft | 421 kts | 149° |
| 2026-05-06 11:47 | 43.06779 | 18.13049 | 35016 ft | 422 kts | 149° |
| 2026-05-06 11:47 | 43.01935 | 18.17588 | 35019 ft | 422 kts | 149° |
| 2026-05-06 11:48 | 42.97090 | 18.22126 | 35027 ft | 423 kts | 149° |
| 2026-05-06 11:48 | 42.92240 | 18.26671 | 35040 ft | 423 kts | 149° |
| 2026-05-06 11:49 | 42.87387 | 18.31198 | 35048 ft | 423 kts | 149° |
| 2026-05-06 11:49 | 42.82531 | 18.35708 | 35062 ft | 423 kts | 149° |
| 2026-05-06 11:50 | 42.77674 | 18.40222 | 35071 ft | 422 kts | 149° |
| 2026-05-06 11:50 | 42.72815 | 18.44725 | 35080 ft | 423 kts | 149° |
| 2026-05-06 11:51 | 42.67954 | 18.49213 | 35084 ft | 422 kts | 149° |
| 2026-05-06 11:51 | 42.63128 | 18.53675 | 35097 ft | 422 kts | 149° |
| 2026-05-06 11:52 | 42.58270 | 18.58166 | 35096 ft | 422 kts | 149° |
| 2026-05-06 11:52 | 42.53413 | 18.62639 | 35097 ft | 422 kts | 149° |
| 2026-05-06 11:53 | 42.48548 | 18.67101 | 35098 ft | 422 kts | 149° |
| 2026-05-06 11:53 | 42.43683 | 18.71563 | 35097 ft | 422 kts | 149° |
| 2026-05-06 11:54 | 42.38819 | 18.76022 | 35096 ft | 422 kts | 149° |
| 2026-05-06 11:54 | 42.33949 | 18.80476 | 35096 ft | 423 kts | 149° |
| 2026-05-06 11:55 | 42.29075 | 18.84913 | 35095 ft | 423 kts | 149° |
| 2026-05-06 11:55 | 42.24192 | 18.89349 | 35088 ft | 423 kts | 149° |
| 2026-05-06 11:56 | 42.19310 | 18.93779 | 35089 ft | 424 kts | 149° |
| 2026-05-06 11:56 | 42.14414 | 18.98218 | 35079 ft | 424 kts | 149° |
| 2026-05-06 11:57 | 42.09511 | 19.02653 | 35082 ft | 424 kts | 149° |
| 2026-05-06 11:57 | 42.04603 | 19.07079 | 35083 ft | 425 kts | 149° |
| 2026-05-06 11:58 | 41.99685 | 19.11509 | 35076 ft | 426 kts | 149° |
| 2026-05-06 11:58 | 41.94765 | 19.15941 | 35073 ft | 426 kts | 149° |
| 2026-05-06 11:59 | 41.89839 | 19.20371 | 35077 ft | 426 kts | 149° |
| 2026-05-06 11:59 | 41.84904 | 19.24793 | 35078 ft | 427 kts | 149° |
| 2026-05-06 12:00 | 41.79956 | 19.29215 | 35082 ft | 428 kts | 149° |
| 2026-05-06 12:00 | 41.74966 | 19.33546 | 35076 ft | 427 kts | 152° |
| 2026-05-06 12:01 | 41.69823 | 19.37510 | 35071 ft | 426 kts | 154° |
| 2026-05-06 12:01 | 41.64637 | 19.41380 | 35083 ft | 427 kts | 154° |
| 2026-05-06 12:02 | 41.59472 | 19.45310 | 35084 ft | 428 kts | 153° |
| 2026-05-06 12:02 | 41.54324 | 19.49285 | 35089 ft | 428 kts | 153° |
| 2026-05-06 12:03 | 41.49205 | 19.53231 | 35094 ft | 428 kts | 153° |
| 2026-05-06 12:03 | 41.44044 | 19.57186 | 35099 ft | 428 kts | 153° |
| 2026-05-06 12:04 | 41.38879 | 19.61132 | 35098 ft | 428 kts | 153° |
| 2026-05-06 12:04 | 41.33716 | 19.65072 | 35101 ft | 428 kts | 153° |
| 2026-05-06 12:05 | 41.28554 | 19.69016 | 35102 ft | 428 kts | 153° |
| 2026-05-06 12:05 | 41.23391 | 19.72955 | 35104 ft | 428 kts | 153° |
| 2026-05-06 12:06 | 41.18224 | 19.76870 | 35102 ft | 428 kts | 153° |
| 2026-05-06 12:06 | 41.13057 | 19.80783 | 35105 ft | 428 kts | 153° |
| 2026-05-06 12:07 | 41.07887 | 19.84696 | 35105 ft | 428 kts | 153° |
| 2026-05-06 12:07 | 41.02714 | 19.88599 | 35109 ft | 428 kts | 153° |
| 2026-05-06 12:08 | 40.97544 | 19.92496 | 35110 ft | 427 kts | 154° |
| 2026-05-06 12:08 | 40.92381 | 19.96379 | 35121 ft | 426 kts | 154° |
| 2026-05-06 12:09 | 40.87236 | 20.00246 | 35122 ft | 425 kts | 154° |
| 2026-05-06 12:09 | 40.82099 | 20.04102 | 35110 ft | 425 kts | 154° |
| 2026-05-06 12:10 | 40.76984 | 20.07936 | 35105 ft | 426 kts | 154° |
| 2026-05-06 12:10 | 40.71794 | 20.11816 | 35104 ft | 426 kts | 154° |
| 2026-05-06 12:11 | 40.66661 | 20.15640 | 35105 ft | 427 kts | 154° |
| 2026-05-06 12:11 | 40.61500 | 20.19480 | 35104 ft | 427 kts | 154° |
| 2026-05-06 12:12 | 40.56296 | 20.23357 | 35113 ft | 427 kts | 154° |
| 2026-05-06 12:12 | 40.51127 | 20.27186 | 35116 ft | 426 kts | 154° |
| 2026-05-06 12:13 | 40.45997 | 20.30986 | 35115 ft | 426 kts | 154° |
| 2026-05-06 12:13 | 40.40832 | 20.34804 | 35114 ft | 426 kts | 154° |
| 2026-05-06 12:14 | 40.35666 | 20.38611 | 35114 ft | 426 kts | 154° |
| 2026-05-06 12:14 | 40.30499 | 20.42412 | 35118 ft | 426 kts | 154° |
| 2026-05-06 12:15 | 40.25325 | 20.46222 | 35118 ft | 426 kts | 154° |
| 2026-05-06 12:15 | 40.20996 | 20.49410 | 35120 ft | 426 kts | 154° |
| 2026-05-06 12:16 | 40.15858 | 20.53173 | 35123 ft | 426 kts | 155° |
| 2026-05-06 12:16 | 40.10683 | 20.56952 | 35121 ft | 426 kts | 155° |
| 2026-05-06 12:17 | 40.05484 | 20.60678 | 35121 ft | 425 kts | 157° |
| 2026-05-06 12:17 | 40.00155 | 20.63993 | 35120 ft | 424 kts | 160° |
| 2026-05-06 12:18 | 39.94776 | 20.67133 | 35129 ft | 424 kts | 160° |
| 2026-05-06 12:18 | 39.89415 | 20.70322 | 35131 ft | 424 kts | 159° |
| 2026-05-06 12:19 | 39.84070 | 20.73576 | 35132 ft | 424 kts | 159° |
| 2026-05-06 12:19 | 39.78734 | 20.76836 | 35129 ft | 424 kts | 159° |
| 2026-05-06 12:20 | 39.73389 | 20.80079 | 35129 ft | 423 kts | 159° |
| 2026-05-06 12:20 | 39.68064 | 20.83350 | 35126 ft | 424 kts | 157° |
| 2026-05-06 12:21 | 39.62824 | 20.86917 | 35125 ft | 426 kts | 155° |
| 2026-05-06 12:21 | 39.57615 | 20.90575 | 35124 ft | 426 kts | 155° |
| 2026-05-06 12:22 | 39.52387 | 20.94194 | 35121 ft | 426 kts | 155° |
| 2026-05-06 12:22 | 39.47135 | 20.97770 | 35127 ft | 426 kts | 156° |
| 2026-05-06 12:23 | 39.41879 | 21.01332 | 35123 ft | 427 kts | 155° |
| 2026-05-06 12:23 | 39.36653 | 21.04876 | 35123 ft | 427 kts | 155° |
| 2026-05-06 12:24 | 39.31363 | 21.08468 | 35128 ft | 427 kts | 155° |
| 2026-05-06 12:24 | 39.26141 | 21.12009 | 35123 ft | 427 kts | 155° |
| 2026-05-06 12:25 | 39.20880 | 21.15554 | 35123 ft | 427 kts | 155° |
| 2026-05-06 12:25 | 39.15613 | 21.19104 | 35123 ft | 427 kts | 155° |
| 2026-05-06 12:26 | 39.10352 | 21.22643 | 35123 ft | 427 kts | 155° |
| 2026-05-06 12:26 | 39.05086 | 21.26185 | 35126 ft | 427 kts | 155° |
| 2026-05-06 12:27 | 38.99820 | 21.29726 | 35128 ft | 427 kts | 155° |
| 2026-05-06 12:27 | 38.94544 | 21.33260 | 35131 ft | 427 kts | 155° |
| 2026-05-06 12:28 | 38.89271 | 21.36779 | 35127 ft | 427 kts | 155° |
| 2026-05-06 12:28 | 38.83997 | 21.40302 | 35129 ft | 427 kts | 155° |
| 2026-05-06 12:29 | 38.78736 | 21.43816 | 35123 ft | 427 kts | 155° |
| 2026-05-06 12:29 | 38.73466 | 21.47321 | 35119 ft | 427 kts | 156° |
| 2026-05-06 12:30 | 38.68193 | 21.50817 | 35115 ft | 427 kts | 156° |
| 2026-05-06 12:30 | 38.62913 | 21.54317 | 35114 ft | 427 kts | 156° |
| 2026-05-06 12:31 | 38.57635 | 21.57812 | 35115 ft | 427 kts | 156° |
| 2026-05-06 12:31 | 38.52353 | 21.61306 | 35115 ft | 427 kts | 156° |
| 2026-05-06 12:32 | 38.47065 | 21.64803 | 35116 ft | 428 kts | 156° |
| 2026-05-06 12:32 | 38.41770 | 21.68291 | 35114 ft | 428 kts | 156° |
| 2026-05-06 12:33 | 38.36471 | 21.71774 | 35116 ft | 429 kts | 156° |
| 2026-05-06 12:33 | 38.31210 | 21.75244 | 35118 ft | 429 kts | 156° |
| 2026-05-06 12:34 | 38.25907 | 21.78720 | 35121 ft | 428 kts | 156° |